createdAt,value
2019-02-22T00:00:44.852Z,4.47
2019-02-22T00:03:13.494Z,4.30
2019-02-22T00:05:41.949Z,4.00
2019-02-22T00:08:10.385Z,5.47
2019-02-22T00:10:38.842Z,4.70
2019-02-22T00:13:07.273Z,4.87
2019-02-22T00:15:36.441Z,5.13
2019-02-22T00:18:05.012Z,4.37
2019-02-22T00:20:52.832Z,3.40
2019-02-22T00:23:21.323Z,3.73
2019-02-22T00:25:49.761Z,3.47
2019-02-22T00:28:18.282Z,3.47
2019-02-22T00:30:46.786Z,7.60
2019-02-22T00:33:15.238Z,6.00
2019-02-22T00:35:43.681Z,4.43
2019-02-22T00:38:12.138Z,5.13
2019-02-22T00:40:40.577Z,5.83
2019-02-22T00:43:09.026Z,7.53
2019-02-22T00:45:37.483Z,9.60
2019-02-22T00:48:05.929Z,7.57
2019-02-22T00:50:34.447Z,4.70
2019-02-22T00:53:02.887Z,6.10
2019-02-22T00:55:31.370Z,9.97
2019-02-22T00:57:59.814Z,10.70
2019-02-22T01:00:28.270Z,5.90
2019-02-22T01:02:56.726Z,4.73
2019-02-22T01:05:25.191Z,3.23
2019-02-22T01:07:53.695Z,3.40
2019-02-22T01:10:30.845Z,6.97
2019-02-22T01:12:52.324Z,4.87
2019-02-22T01:15:20.839Z,3.70
2019-02-22T01:17:49.278Z,4.80
2019-02-22T01:20:17.799Z,5.17
2019-02-22T01:22:46.239Z,3.70
2019-02-22T01:25:14.692Z,2.90
2019-02-22T01:27:43.133Z,3.27
2019-02-22T01:30:11.650Z,3.90
2019-02-22T01:32:40.115Z,3.03
2019-02-22T01:35:08.694Z,4.43
2019-02-22T01:37:37.143Z,4.47
2019-02-22T01:40:08.727Z,7.20
2019-02-22T01:42:37.182Z,10.03
2019-02-22T01:45:06.654Z,3.87
2019-02-22T01:47:35.106Z,3.20
2019-02-22T01:50:04.316Z,3.40
2019-02-22T01:52:32.770Z,3.20
2019-02-22T01:55:01.237Z,5.67
2019-02-22T01:57:29.738Z,4.90
2019-02-22T01:59:58.191Z,3.67
2019-02-22T02:02:26.630Z,3.80
2019-02-22T02:04:55.083Z,4.37
2019-02-22T02:07:23.524Z,5.93
2019-02-22T02:09:52.046Z,3.13
2019-02-22T02:12:20.485Z,3.80
2019-02-22T02:14:48.927Z,5.97
2019-02-22T02:17:17.887Z,4.30
2019-02-22T02:19:46.716Z,7.50
2019-02-22T02:22:15.209Z,5.50
2019-02-22T02:24:43.654Z,10.43
2019-02-22T02:27:12.090Z,4.33
2019-02-22T02:29:40.537Z,3.70
2019-02-22T02:32:08.979Z,4.00
2019-02-22T02:34:37.510Z,4.57
2019-02-22T02:37:05.963Z,4.40
2019-02-22T02:39:34.479Z,5.83
2019-02-22T02:42:02.994Z,3.50
2019-02-22T02:44:31.427Z,6.20
2019-02-22T02:46:59.896Z,4.07
2019-02-22T02:49:28.330Z,4.33
2019-02-22T02:51:56.767Z,4.40
2019-02-22T02:54:25.222Z,10.50
2019-02-22T02:56:53.674Z,4.63
2019-02-22T02:59:22.126Z,4.70
2019-02-22T03:01:50.567Z,4.47
2019-02-22T03:04:19.017Z,3.90
2019-02-22T03:06:55.863Z,5.40
2019-02-22T03:09:24.318Z,3.27
2019-02-22T03:11:52.761Z,3.50
2019-02-22T03:14:21.288Z,2.97
2019-02-22T03:16:49.735Z,3.83
2019-02-22T03:19:18.175Z,9.83
2019-02-22T03:21:46.626Z,6.10
2019-02-22T03:24:15.063Z,4.60
2019-02-22T03:26:43.588Z,5.33
2019-02-22T03:29:12.031Z,4.30
2019-02-22T03:31:40.467Z,7.27
2019-02-22T03:34:09.006Z,4.33
2019-02-22T03:36:37.466Z,10.03
2019-02-22T03:39:06.586Z,3.30
2019-02-22T03:41:35.102Z,5.03
2019-02-22T03:44:03.626Z,4.63
2019-02-22T03:46:32.076Z,3.80
2019-02-22T03:49:00.533Z,2.07
2019-02-22T03:51:28.976Z,3.20
2019-02-22T03:53:57.728Z,2.83
2019-02-22T03:56:26.318Z,2.50
2019-02-22T03:58:54.827Z,6.60
2019-02-22T04:01:23.278Z,1.30
2019-02-22T04:03:51.790Z,4.77
2019-02-22T04:06:20.244Z,2.30
2019-02-22T04:08:48.682Z,3.73
2019-02-22T04:11:17.150Z,2.70
2019-02-22T04:13:45.729Z,3.30
2019-02-22T04:16:14.173Z,2.77
2019-02-22T04:18:42.766Z,3.27
2019-02-22T04:21:11.222Z,4.20
2019-02-22T04:23:39.674Z,5.47
2019-02-22T04:26:08.114Z,2.70
2019-02-22T04:28:36.563Z,3.63
2019-02-22T04:31:04.999Z,2.10
2019-02-22T04:33:33.460Z,1.30
2019-02-22T04:36:06.993Z,1.40
2019-02-22T04:38:35.508Z,1.80
2019-02-22T04:41:03.958Z,0.90
2019-02-22T04:43:32.476Z,2.10
2019-02-22T04:46:00.919Z,2.20
2019-02-22T04:48:29.379Z,1.10
2019-02-22T04:50:57.806Z,2.00
2019-02-22T04:53:26.258Z,1.10
2019-02-22T04:55:54.710Z,0.97
2019-02-22T04:58:23.154Z,1.30
2019-02-22T05:00:51.609Z,1.07
2019-02-22T05:03:20.065Z,1.67
2019-02-22T05:05:48.527Z,0.50
2019-02-22T05:08:16.966Z,0.40
2019-02-22T05:10:45.423Z,1.27
2019-02-22T05:13:13.862Z,0.77
2019-02-22T05:15:42.313Z,0.50
2019-02-22T05:18:10.755Z,2.30
2019-02-22T05:20:39.193Z,0.40
2019-02-22T05:23:07.742Z,0.63
2019-02-22T05:25:36.264Z,0.50
2019-02-22T05:28:04.718Z,0.50
2019-02-22T05:30:36.221Z,0.40
2019-02-22T05:33:03.482Z,0.50
2019-02-22T05:35:32.003Z,0.50
2019-02-22T05:38:00.444Z,2.00
2019-02-22T05:40:28.898Z,0.50
2019-02-22T05:42:57.329Z,0.70
2019-02-22T05:45:25.778Z,0.80
2019-02-22T05:47:54.216Z,0.90
2019-02-22T05:50:22.736Z,0.60
2019-02-22T05:52:51.185Z,0.60
2019-02-22T05:55:19.633Z,3.73
2019-02-22T05:57:48.154Z,1.70
2019-02-22T06:00:17.275Z,0.60
2019-02-22T06:02:45.722Z,0.60
2019-02-22T06:05:14.163Z,0.90
2019-02-22T06:07:42.614Z,2.93
2019-02-22T06:10:11.534Z,0.73
2019-02-22T06:12:39.972Z,0.40
2019-02-22T06:15:08.890Z,0.40
2019-02-22T06:17:37.334Z,0.60
2019-02-22T06:20:11.174Z,0.50
2019-02-22T06:22:39.619Z,1.33
2019-02-22T06:25:08.473Z,4.53
2019-02-22T06:27:36.938Z,5.07
2019-02-22T06:30:08.682Z,1.67
2019-02-22T06:32:37.156Z,1.83
2019-02-22T06:35:08.791Z,0.70
2019-02-22T06:37:37.109Z,0.47
2019-02-22T06:40:09.845Z,0.70
2019-02-22T06:42:45.395Z,0.90
2019-02-22T06:45:09.646Z,0.80
2019-02-22T06:47:38.089Z,0.50
2019-02-22T06:50:08.603Z,0.40
2019-02-22T06:52:37.102Z,0.70
2019-02-22T06:55:08.982Z,0.80
2019-02-22T06:57:37.426Z,0.70
2019-02-22T07:00:11.331Z,1.40
2019-02-22T07:02:39.794Z,0.80
2019-02-22T07:05:08.638Z,1.00
2019-02-22T07:07:37.118Z,1.03
2019-02-22T07:10:08.681Z,1.20
2019-02-22T07:12:44.760Z,0.50
2019-02-22T07:15:13.207Z,0.70
2019-02-22T07:17:41.646Z,2.40
2019-02-22T07:20:11.538Z,1.90
2019-02-22T07:22:39.981Z,0.90
2019-02-22T07:25:10.966Z,0.73
2019-02-22T07:27:39.414Z,0.53
2019-02-22T07:30:11.054Z,0.93
2019-02-22T07:32:39.891Z,1.60
2019-02-22T07:35:09.849Z,0.77
2019-02-22T07:37:38.594Z,0.50
2019-02-22T07:40:07.340Z,0.40
2019-02-22T07:42:35.795Z,0.70
2019-02-22T07:45:05.598Z,0.50
2019-02-22T07:47:34.057Z,0.57
2019-02-22T07:50:02.743Z,0.63
2019-02-22T07:52:31.183Z,0.40
2019-02-22T07:54:59.638Z,0.40
2019-02-22T07:57:28.082Z,0.60
2019-02-22T07:59:56.602Z,0.40
2019-02-22T08:02:25.045Z,4.40
2019-02-22T08:04:53.486Z,1.43
2019-02-22T08:07:21.926Z,1.40
2019-02-22T08:09:50.361Z,0.60
2019-02-22T08:12:18.813Z,0.40
2019-02-22T08:14:47.251Z,0.60
2019-02-22T08:17:15.707Z,0.63
2019-02-22T08:19:44.142Z,0.80
2019-02-22T08:22:12.600Z,0.40
2019-02-22T08:24:41.036Z,0.50
2019-02-22T08:27:09.491Z,0.40
2019-02-22T08:29:38.388Z,0.47
2019-02-22T08:32:07.055Z,0.30
2019-02-22T08:34:35.510Z,0.43
2019-02-22T08:37:03.947Z,0.40
2019-02-22T08:39:32.407Z,0.50
2019-02-22T08:42:00.850Z,0.50
2019-02-22T08:44:29.295Z,0.50
2019-02-22T08:46:57.751Z,0.73
2019-02-22T08:49:26.186Z,1.23
2019-02-22T08:51:54.634Z,1.13
2019-02-22T08:54:23.090Z,1.00
2019-02-22T08:56:51.542Z,0.40
2019-02-22T08:59:19.982Z,0.43
2019-02-22T09:01:48.430Z,0.40
2019-02-22T09:04:16.872Z,0.30
2019-02-22T09:06:45.320Z,0.83
2019-02-22T09:09:13.757Z,0.40
2019-02-22T09:11:42.198Z,0.40
2019-02-22T09:14:10.653Z,0.50
2019-02-22T09:16:39.103Z,0.40
2019-02-22T09:19:07.635Z,0.40
2019-02-22T09:21:36.094Z,0.40
2019-02-22T09:24:04.531Z,0.40
2019-02-22T09:26:32.986Z,0.40
2019-02-22T09:29:01.418Z,0.30
2019-02-22T09:31:29.874Z,0.40
2019-02-22T09:33:58.309Z,0.40
2019-02-22T09:36:26.760Z,0.30
2019-02-22T09:38:55.200Z,0.40
2019-02-22T09:41:23.659Z,0.40
2019-02-22T09:43:55.347Z,0.40
2019-02-22T09:46:22.294Z,0.50
2019-02-22T09:48:50.741Z,0.50
2019-02-22T09:51:19.185Z,0.40
2019-02-22T09:53:47.630Z,0.30
2019-02-22T09:56:16.087Z,0.40
2019-02-22T09:58:44.543Z,0.40
2019-02-22T10:01:13.003Z,0.47
2019-02-22T10:03:41.464Z,0.40
2019-02-22T10:06:09.915Z,0.40
2019-02-22T10:08:38.359Z,0.30
2019-02-22T10:11:06.811Z,0.40
2019-02-22T10:13:35.251Z,0.40
2019-02-22T10:16:03.715Z,0.40
2019-02-22T10:18:32.157Z,0.40
2019-02-22T10:21:00.613Z,0.30
2019-02-22T10:23:29.056Z,0.40
2019-02-22T10:25:57.642Z,0.40
2019-02-22T10:28:26.099Z,0.30
2019-02-22T10:30:54.538Z,0.40
2019-02-22T10:33:23.002Z,2.50
2019-02-22T10:35:51.437Z,0.70
2019-02-22T10:38:19.886Z,0.40
2019-02-22T10:40:48.350Z,0.30
2019-02-22T10:43:16.786Z,0.40
2019-02-22T10:45:45.243Z,0.50
2019-02-22T10:48:13.678Z,0.40
2019-02-22T10:50:42.152Z,0.40
2019-02-22T10:53:10.670Z,0.50
2019-02-22T10:55:39.113Z,0.40
2019-02-22T10:58:07.573Z,0.40
2019-02-22T11:00:36.098Z,0.90
2019-02-22T11:03:04.573Z,0.30
2019-02-22T11:05:33.082Z,0.40
2019-02-22T11:08:01.543Z,0.40
2019-02-22T11:10:29.984Z,0.30
2019-02-22T11:12:58.441Z,0.40
2019-02-22T11:15:26.957Z,0.50
2019-02-22T11:17:55.414Z,0.50
2019-02-22T11:20:23.875Z,0.50
2019-02-22T11:22:52.334Z,0.50
2019-02-22T11:25:20.771Z,0.40
2019-02-22T11:27:49.210Z,0.40
2019-02-22T11:30:17.735Z,0.40
2019-02-22T11:32:46.174Z,0.83
2019-02-22T11:35:14.636Z,0.50
2019-02-22T11:37:43.089Z,0.50
2019-02-22T11:40:11.999Z,0.40
2019-02-22T11:42:40.509Z,0.50
2019-02-22T11:45:10.272Z,0.40
2019-02-22T11:47:38.726Z,0.40
2019-02-22T11:50:09.546Z,0.40
2019-02-22T11:52:38.093Z,0.50
2019-02-22T11:55:08.665Z,0.40
2019-02-22T11:57:37.197Z,0.40
2019-02-22T12:00:13.407Z,0.40
2019-02-22T12:02:41.926Z,0.40
2019-02-22T12:05:10.453Z,0.40
2019-02-22T12:07:38.910Z,0.40
2019-02-22T12:10:08.635Z,0.40
2019-02-22T12:12:37.142Z,0.40
2019-02-22T12:15:09.051Z,0.40
2019-02-22T12:17:37.562Z,0.40
2019-02-22T12:20:07.959Z,0.40
2019-02-22T12:22:36.398Z,0.40
2019-02-22T12:25:10.401Z,0.40
2019-02-22T12:27:38.842Z,0.40
2019-02-22T12:30:13.370Z,0.40
2019-02-22T12:32:41.817Z,0.40
2019-02-22T12:35:10.345Z,2.00
2019-02-22T12:37:38.849Z,0.40
2019-02-22T12:40:10.402Z,0.40
2019-02-22T12:42:38.974Z,0.50
2019-02-22T12:45:09.808Z,0.37
2019-02-22T12:47:38.255Z,0.40
2019-02-22T12:50:11.646Z,0.40
2019-02-22T12:52:40.096Z,0.40
2019-02-22T12:55:09.754Z,0.40
2019-02-22T12:57:38.261Z,0.40
2019-02-22T13:00:15.067Z,0.40
2019-02-22T13:02:43.522Z,0.40
2019-02-22T13:05:24.204Z,0.40
2019-02-22T13:07:53.231Z,0.40
2019-02-22T13:10:21.866Z,0.40
2019-02-22T13:12:50.331Z,0.40
2019-02-22T13:15:18.846Z,0.40
2019-02-22T13:17:47.377Z,0.40
2019-02-22T13:20:15.829Z,0.50
2019-02-22T13:22:44.290Z,0.40
2019-02-22T13:25:12.815Z,0.40
2019-02-22T13:27:41.343Z,0.40
2019-02-22T13:30:14.474Z,0.40
2019-02-22T13:32:42.986Z,0.40
2019-02-22T13:35:11.582Z,0.40
2019-02-22T13:37:40.114Z,0.50
2019-02-22T13:40:16.361Z,0.30
2019-02-22T13:42:44.978Z,0.50
2019-02-22T13:45:25.552Z,0.40
2019-02-22T13:47:44.818Z,0.40
2019-02-22T13:50:18.099Z,0.40
2019-02-22T13:52:46.615Z,0.40
2019-02-22T13:55:15.366Z,0.50
2019-02-22T13:57:43.840Z,0.50
2019-02-22T14:00:17.721Z,0.50
2019-02-22T14:02:46.169Z,0.70
2019-02-22T14:05:15.802Z,0.40
2019-02-22T14:07:54.395Z,0.60
2019-02-22T14:10:23.290Z,0.70
2019-02-22T14:12:51.817Z,0.63
2019-02-22T14:15:20.328Z,0.73
2019-02-22T14:17:49.398Z,0.60
2019-02-22T14:20:17.982Z,0.60
2019-02-22T14:22:47.683Z,0.63
2019-02-22T14:25:16.140Z,0.60
2019-02-22T14:27:44.584Z,2.30
2019-02-22T14:30:15.048Z,0.50
2019-02-22T14:32:43.573Z,0.50
2019-02-22T14:35:12.090Z,0.70
2019-02-22T14:37:40.564Z,0.70
2019-02-22T14:40:11.184Z,0.60
2019-02-22T14:42:39.637Z,1.23
2019-02-22T14:45:10.211Z,0.50
2019-02-22T14:47:38.729Z,0.70
2019-02-22T14:50:15.138Z,0.50
2019-02-22T14:52:43.662Z,0.50
2019-02-22T14:55:12.414Z,0.50
2019-02-22T14:57:40.948Z,0.50
2019-02-22T15:00:19.646Z,0.60
2019-02-22T15:02:48.239Z,0.63
2019-02-22T15:05:16.766Z,0.70
2019-02-22T15:07:45.218Z,0.70
2019-02-22T15:10:13.930Z,0.53
2019-02-22T15:12:42.378Z,0.57
2019-02-22T15:15:13.911Z,0.60
2019-02-22T15:17:44.063Z,0.73
2019-02-22T15:20:12.519Z,0.50
2019-02-22T15:22:40.983Z,0.50
2019-02-22T15:25:11.664Z,0.80
2019-02-22T15:27:40.110Z,0.50
2019-02-22T15:30:11.608Z,0.70
2019-02-22T15:32:40.226Z,0.60
2019-02-22T15:35:11.590Z,0.50
2019-02-22T15:37:40.110Z,0.50
2019-02-22T15:40:10.485Z,0.50
2019-02-22T15:42:40.595Z,0.50
2019-02-22T15:45:12.425Z,0.50
2019-02-22T15:47:41.001Z,0.50
2019-02-22T15:50:11.806Z,0.63
2019-02-22T15:52:40.262Z,0.60
2019-02-22T15:55:09.272Z,1.17
2019-02-22T15:57:37.725Z,0.80
2019-02-22T16:00:09.259Z,0.60
2019-02-22T16:02:37.770Z,0.60
2019-02-22T16:05:09.638Z,1.60
2019-02-22T16:07:44.712Z,0.70
2019-02-22T16:10:09.917Z,0.50
2019-02-22T16:12:38.349Z,0.60
2019-02-22T16:15:09.302Z,0.50
2019-02-22T16:17:37.798Z,1.07
2019-02-22T16:20:08.422Z,0.70
2019-02-22T16:22:36.866Z,0.50
2019-02-22T16:25:06.460Z,0.60
2019-02-22T16:27:34.920Z,1.60
2019-02-22T16:30:04.558Z,0.60
2019-02-22T16:32:33.010Z,2.60
2019-02-22T16:35:01.451Z,0.87
2019-02-22T16:37:29.902Z,0.87
2019-02-22T16:39:58.345Z,0.70
2019-02-22T16:42:26.798Z,0.50
2019-02-22T16:44:55.238Z,0.60
2019-02-22T16:47:23.686Z,0.60
2019-02-22T16:49:52.135Z,1.43
2019-02-22T16:52:20.577Z,0.80
2019-02-22T16:54:49.028Z,0.60
2019-02-22T16:57:17.469Z,1.27
2019-02-22T16:59:45.915Z,0.70
2019-02-22T17:02:14.510Z,0.40
2019-02-22T17:04:42.947Z,0.70
2019-02-22T17:07:11.397Z,0.50
2019-02-22T17:09:39.922Z,2.60
2019-02-22T17:12:08.379Z,0.70
2019-02-22T17:14:36.826Z,0.57
2019-02-22T17:17:05.334Z,0.53
2019-02-22T17:19:33.793Z,0.53
2019-02-22T17:22:02.234Z,0.60
2019-02-22T17:24:30.686Z,1.03
2019-02-22T17:26:59.214Z,1.03
2019-02-22T17:29:27.662Z,0.50
2019-02-22T17:31:58.812Z,0.60
2019-02-22T17:34:27.249Z,0.50
2019-02-22T17:36:55.707Z,0.47
2019-02-22T17:39:24.162Z,0.60
2019-02-22T17:41:52.591Z,0.43
2019-02-22T17:44:21.052Z,0.50
2019-02-22T17:46:57.292Z,0.50
2019-02-22T17:49:19.678Z,0.60
2019-02-22T17:51:48.110Z,0.80
2019-02-22T17:54:16.562Z,0.50
2019-02-22T17:56:45.023Z,0.60
2019-02-22T17:59:13.468Z,0.50
2019-02-22T18:01:41.992Z,0.80
2019-02-22T18:04:10.442Z,0.60
2019-02-22T18:06:38.886Z,0.57
2019-02-22T18:09:08.091Z,0.60
2019-02-22T18:11:36.598Z,0.50
2019-02-22T18:14:05.053Z,0.50
2019-02-22T18:16:33.489Z,0.40
2019-02-22T18:19:01.944Z,0.60
2019-02-22T18:21:30.398Z,0.50
2019-02-22T18:23:58.855Z,0.60
2019-02-22T18:26:27.306Z,0.50
2019-02-22T18:28:55.747Z,0.50
2019-02-22T18:31:24.190Z,4.63
2019-02-22T18:33:52.650Z,0.50
2019-02-22T18:36:21.097Z,0.60
2019-02-22T18:38:49.547Z,0.67
2019-02-22T18:41:22.360Z,0.70
2019-02-22T18:43:48.234Z,0.90
2019-02-22T18:46:16.678Z,0.60
2019-02-22T18:48:45.205Z,0.80
2019-02-22T18:51:13.722Z,0.50
2019-02-22T18:53:42.174Z,0.57
2019-02-22T18:56:10.703Z,0.70
2019-02-22T18:58:39.225Z,0.53
2019-02-22T19:01:07.750Z,0.60
2019-02-22T19:03:36.212Z,0.70
2019-02-22T19:06:04.646Z,0.60
2019-02-22T19:08:33.189Z,0.50
2019-02-22T19:11:02.031Z,0.60
2019-02-22T19:13:30.514Z,0.50
2019-02-22T19:15:59.127Z,0.70
2019-02-22T19:18:27.587Z,0.60
2019-02-22T19:21:04.960Z,0.50
2019-02-22T19:23:33.437Z,0.60
2019-02-22T19:26:02.166Z,0.93
2019-02-22T19:28:30.976Z,0.50
2019-02-22T19:30:59.882Z,2.00
2019-02-22T19:33:28.383Z,6.23
2019-02-22T19:35:57.087Z,0.50
2019-02-22T19:38:25.923Z,0.47
2019-02-22T19:40:54.417Z,0.50
2019-02-22T19:43:23.233Z,0.50
2019-02-22T19:45:51.747Z,0.70
2019-02-22T19:48:20.327Z,0.70
2019-02-22T19:50:49.294Z,0.60
2019-02-22T19:53:18.095Z,0.50
2019-02-22T19:55:47.048Z,1.23
2019-02-22T19:58:15.587Z,0.60
2019-02-22T20:00:53.278Z,0.53
2019-02-22T20:03:22.184Z,0.70
2019-02-22T20:05:51.049Z,2.00
2019-02-22T20:08:20.080Z,1.60
2019-02-22T20:10:50.815Z,1.30
2019-02-22T20:13:19.748Z,0.60
2019-02-22T20:15:48.295Z,0.70
2019-02-22T20:18:16.746Z,2.13
2019-02-22T20:20:46.534Z,1.20
2019-02-22T20:23:15.088Z,0.90
2019-02-22T20:25:43.610Z,0.97
2019-02-22T20:28:12.118Z,0.70
2019-02-22T20:30:40.575Z,0.83
2019-02-22T20:33:09.217Z,1.70
2019-02-22T20:35:37.789Z,3.33
2019-02-22T20:38:06.312Z,1.13
2019-02-22T20:40:34.818Z,1.10
2019-02-22T20:43:03.285Z,1.03
2019-02-22T20:45:31.794Z,1.23
2019-02-22T20:48:05.070Z,1.30
2019-02-22T20:50:30.823Z,0.70
2019-02-22T20:52:59.350Z,1.03
2019-02-22T20:55:27.936Z,1.07
2019-02-22T20:57:56.394Z,0.90
2019-02-22T21:00:27.129Z,2.53
2019-02-22T21:02:55.791Z,1.83
2019-02-22T21:05:27.784Z,0.90
2019-02-22T21:07:56.306Z,0.80
2019-02-22T21:10:24.743Z,1.60
2019-02-22T21:12:53.201Z,1.10
2019-02-22T21:15:21.639Z,1.00
2019-02-22T21:17:50.090Z,1.20
2019-02-22T21:20:20.950Z,1.27
2019-02-22T21:22:49.478Z,1.00
2019-02-22T21:25:17.919Z,1.03
2019-02-22T21:27:46.372Z,0.97
2019-02-22T21:30:16.170Z,1.57
2019-02-22T21:32:44.609Z,0.90
2019-02-22T21:35:13.053Z,1.03
2019-02-22T21:37:44.952Z,1.20
2019-02-22T21:40:13.951Z,1.02
2019-02-22T21:42:42.486Z,1.30
2019-02-22T21:45:12.629Z,1.17
2019-02-22T21:47:41.152Z,1.20
2019-02-22T21:50:12.670Z,1.10
2019-02-22T21:52:41.118Z,1.20
2019-02-22T21:55:11.782Z,1.20
2019-02-22T21:57:40.217Z,1.40
2019-02-22T22:00:19.649Z,2.87
2019-02-22T22:02:48.167Z,1.37
2019-02-22T22:05:16.693Z,1.97
2019-02-22T22:07:45.130Z,1.30
2019-02-22T22:10:13.646Z,1.43
2019-02-22T22:12:42.097Z,0.90
2019-02-22T22:15:12.378Z,1.07
2019-02-22T22:17:40.893Z,1.60
2019-02-22T22:20:10.071Z,1.50
2019-02-22T22:22:38.699Z,1.00
2019-02-22T22:25:10.302Z,1.00
2019-02-22T22:27:38.875Z,1.40
2019-02-22T22:30:15.216Z,1.27
2019-02-22T22:32:43.804Z,0.93
2019-02-22T22:35:14.553Z,0.80
2019-02-22T22:37:43.006Z,1.10
2019-02-22T22:40:11.589Z,1.07
2019-02-22T22:42:40.117Z,1.30
2019-02-22T22:45:13.745Z,1.27
2019-02-22T22:47:42.206Z,0.80
2019-02-22T22:50:15.579Z,0.90
2019-02-22T22:52:44.083Z,0.83
2019-02-22T22:55:12.606Z,1.00
2019-02-22T22:57:41.045Z,10.67
2019-02-22T23:00:19.125Z,1.20
2019-02-22T23:02:47.787Z,1.07
2019-02-22T23:05:16.278Z,0.90
2019-02-22T23:07:44.720Z,2.97
2019-02-22T23:10:13.433Z,1.00
2019-02-22T23:12:44.215Z,1.50
2019-02-22T23:15:12.053Z,1.10
2019-02-22T23:17:40.500Z,0.83
2019-02-22T23:20:09.021Z,1.40
2019-02-22T23:22:37.477Z,1.50
2019-02-22T23:25:05.993Z,1.40
2019-02-22T23:27:34.510Z,1.60
2019-02-22T23:30:03.027Z,1.37
2019-02-22T23:32:31.549Z,1.70
2019-02-22T23:34:59.995Z,1.57
2019-02-22T23:37:28.509Z,1.53
2019-02-22T23:39:56.960Z,1.30
2019-02-22T23:42:25.475Z,1.50
2019-02-22T23:44:53.912Z,1.67
2019-02-22T23:47:22.366Z,1.47
2019-02-22T23:49:50.811Z,1.70
2019-02-22T23:52:19.258Z,1.40
2019-02-22T23:54:47.699Z,1.40
2019-02-22T23:57:16.148Z,2.20
2019-02-22T23:59:44.597Z,1.40
